Time;durP1;ratioP1;P1;durP2;ratioP2;P2;SDS_P1;SDS_P2;PMS_P1;PMS_P2;Temp;Humidity;BMP_temperature;BMP_pressure;BME280_temperature;BME280_humidity;BME280_pressure;Samples;Min_cycle;Max_cycle;Signal;HPM_P1;HPM_P2
2023/01/11 00:01:36;;;;;;;2.72;1.00;;;7.10;98.00;;;;;;5016244;28;20026;-69
2023/01/11 00:04:01;;;;;;;2.47;0.88;;;7.10;98.00;;;;;;5014342;28;20029;-68
2023/01/11 00:06:27;;;;;;;2.08;0.93;;;7.10;98.00;;;;;;5013924;28;20406;-68
2023/01/11 00:08:54;;;;;;;2.97;0.90;;;7.10;98.00;;;;;;5016117;28;20450;-68
2023/01/11 00:11:21;;;;;;;5.50;1.02;;;7.10;98.00;;;;;;5015171;28;20747;-68
2023/01/11 00:13:46;;;;;;;2.35;0.90;;;7.10;98.00;;;;;;5016154;28;20308;-68
2023/01/11 00:16:12;;;;;;;2.40;0.90;;;7.10;98.00;;;;;;4997764;28;20042;-68
2023/01/11 00:18:39;;;;;;;2.53;0.82;;;7.20;98.00;;;;;;5019708;28;20033;-68
2023/01/11 00:21:06;;;;;;;2.15;0.93;;;7.20;98.00;;;;;;5014828;28;20145;-68
2023/01/11 00:23:33;;;;;;;2.35;1.10;;;7.20;98.00;;;;;;5015206;28;20032;-68
2023/01/11 00:26:05;;;;;;;2.00;0.90;;;7.20;98.00;;;;;;5014389;28;20042;-68
2023/01/11 00:28:31;;;;;;;2.83;0.90;;;7.20;98.00;;;;;;5017404;28;20040;-68
2023/01/11 00:30:57;;;;;;;2.50;0.90;;;7.20;98.00;;;;;;4983472;28;20427;-67
2023/01/11 00:33:23;;;;;;;3.17;0.98;;;7.20;98.00;;;;;;5006534;28;20114;-67
2023/01/11 00:35:52;;;;;;;2.17;1.00;;;7.20;98.00;;;;;;5016158;28;20108;-68
2023/01/11 00:49:17;;;;;;;2.20;0.80;;;7.40;98.00;;;;;;5016373;28;20161;-68
2023/01/11 00:51:43;;;;;;;1.77;0.98;;;7.40;98.00;;;;;;5020546;28;20453;-68
2023/01/11 00:54:08;;;;;;;1.83;0.88;;;7.30;98.00;;;;;;4996199;28;20030;-68
2023/01/11 00:56:36;;;;;;;3.22;0.95;;;7.30;98.00;;;;;;5014293;28;20045;-67
2023/01/11 00:59:01;;;;;;;1.05;0.80;;;7.40;98.00;;;;;;5020591;28;20021;-69
2023/01/11 01:01:27;;;;;;;1.33;0.77;;;7.40;98.00;;;;;;5014794;28;20030;-67
2023/01/11 01:03:52;;;;;;;1.42;0.80;;;7.30;98.00;;;;;;5018569;28;20038;-67
2023/01/11 01:06:18;;;;;;;2.00;0.90;;;7.30;98.00;;;;;;5018777;28;20119;-67
2023/01/11 01:08:44;;;;;;;1.23;0.70;;;7.30;98.00;;;;;;5016762;28;20037;-67
2023/01/11 01:11:12;;;;;;;1.85;0.80;;;7.30;98.00;;;;;;5015023;28;20045;-68
2023/01/11 01:16:22;;;;;;;3.45;0.98;;;7.30;98.00;;;;;;5009831;28;20041;-68
2023/01/11 01:18:48;;;;;;;1.00;0.70;;;7.30;98.00;;;;;;5013105;28;20022;-68
2023/01/11 01:21:13;;;;;;;1.55;0.80;;;7.30;98.00;;;;;;5017001;28;20033;-68
2023/01/11 01:23:39;;;;;;;1.75;0.80;;;7.30;98.00;;;;;;5020548;28;20374;-68
2023/01/11 01:26:05;;;;;;;2.38;0.98;;;7.30;98.00;;;;;;5019734;28;20034;-70
2023/01/11 01:28:31;;;;;;;0.80;0.70;;;7.20;98.00;;;;;;5017606;28;20149;-68
2023/01/11 01:30:57;;;;;;;2.08;1.00;;;7.10;98.00;;;;;;5017181;28;20038;-68
2023/01/11 01:33:23;;;;;;;1.52;0.82;;;7.10;98.00;;;;;;5015987;28;20018;-68
2023/01/11 01:35:49;;;;;;;2.33;0.90;;;7.10;98.00;;;;;;5017906;28;20033;-69
2023/01/11 01:38:15;;;;;;;2.03;1.00;;;7.20;98.00;;;;;;4997989;28;20073;-68
2023/01/11 01:40:46;;;;;;;1.95;0.90;;;7.20;98.00;;;;;;5015976;28;20045;-68
2023/01/11 01:43:13;;;;;;;5.22;1.20;;;7.10;98.00;;;;;;5018798;28;20054;-68
2023/01/11 01:45:40;;;;;;;3.22;1.00;;;7.00;98.00;;;;;;5017453;28;20331;-69
2023/01/11 01:48:10;;;;;;;4.50;1.65;;;6.90;98.00;;;;;;5018773;28;20018;-68
2023/01/11 01:50:43;;;;;;;2.47;1.00;;;6.80;98.00;;;;;;5017387;28;20022;-68
2023/01/11 01:53:25;;;;;;;3.88;1.00;;;6.90;98.00;;;;;;5017033;28;20033;-68
2023/01/11 01:55:54;;;;;;;2.80;1.00;;;6.90;98.00;;;;;;5017460;28;20033;-68
2023/01/11 01:58:27;;;;;;;1.98;1.00;;;6.80;98.00;;;;;;5016081;28;20026;-68
2023/01/11 02:00:53;;;;;;;2.72;1.10;;;6.70;98.00;;;;;;4988715;28;20057;-67
2023/01/11 02:03:25;;;;;;;3.30;1.10;;;6.70;98.00;;;;;;5017278;28;20392;-67
2023/01/11 02:05:52;;;;;;;3.05;1.00;;;6.80;98.00;;;;;;5018850;28;20481;-68
2023/01/11 02:08:26;;;;;;;3.65;1.10;;;6.90;98.00;;;;;;5015434;28;20034;-68
2023/01/11 02:10:53;;;;;;;2.35;1.00;;;6.80;98.00;;;;;;5016384;28;20129;-67
2023/01/11 02:13:19;;;;;;;2.67;1.10;;;6.80;98.00;;;;;;5016985;28;20034;-67
2023/01/11 02:15:45;;;;;;;1.42;0.90;;;6.90;98.00;;;;;;5016369;28;20343;-68
2023/01/11 02:18:12;;;;;;;2.55;1.00;;;6.90;98.00;;;;;;5014231;28;20026;-68
2023/01/11 02:20:44;;;;;;;2.83;1.02;;;6.90;98.00;;;;;;5011455;28;20014;-68
2023/01/11 02:23:15;;;;;;;2.60;1.00;;;6.90;98.00;;;;;;4985935;28;20113;-68
2023/01/11 02:26:09;;;;;;;3.25;0.90;;;6.90;98.00;;;;;;5013207;28;20057;-68
2023/01/11 02:28:58;;;;;;;2.00;0.90;;;6.80;98.00;;;;;;5009054;28;20343;-69
2023/01/11 02:31:33;;;;;;;2.25;1.08;;;6.80;98.00;;;;;;5006699;28;20390;-68
2023/01/11 02:34:18;;;;;;;5.15;1.30;;;6.80;98.00;;;;;;5029663;28;20375;-68
2023/01/11 02:37:09;;;;;;;3.70;1.08;;;6.80;98.00;;;;;;5015193;28;20026;-68
2023/01/11 02:39:59;;;;;;;3.67;1.10;;;6.90;98.00;;;;;;5011648;28;20030;-69
2023/01/11 02:45:56;;;;;;;1.92;1.05;;;7.00;98.00;;;;;;5017643;28;20077;-68
2023/01/11 02:48:27;;;;;;;2.35;1.02;;;6.90;98.00;;;;;;5004866;28;20342;-68
2023/01/11 02:51:11;;;;;;;1.92;1.02;;;6.80;98.00;;;;;;5012956;28;20423;-67
2023/01/11 02:53:46;;;;;;;2.13;1.02;;;6.80;98.00;;;;;;5000968;28;20378;-68
2023/01/11 02:56:22;;;;;;;2.60;1.20;;;6.80;98.00;;;;;;5012597;28;20041;-68
2023/01/11 02:58:51;;;;;;;2.58;1.20;;;6.80;98.00;;;;;;5014990;28;20036;-68
2023/01/11 03:01:21;;;;;;;3.25;1.10;;;6.80;98.00;;;;;;5012166;28;20105;-68
2023/01/11 03:03:47;;;;;;;3.78;1.48;;;6.80;98.00;;;;;;5021185;28;20461;-68
2023/01/11 03:06:15;;;;;;;3.58;1.00;;;6.80;98.00;;;;;;5012952;28;20088;-68
2023/01/11 03:09:07;;;;;;;2.75;1.00;;;6.80;98.00;;;;;;4993522;28;20018;-68
2023/01/11 03:15:15;;;;;;;4.82;1.30;;;6.90;98.00;;;;;;5012202;28;20049;-68
2023/01/11 03:18:05;;;;;;;2.15;1.20;;;6.90;98.00;;;;;;5012589;28;20026;-68
2023/01/11 03:20:37;;;;;;;2.20;1.02;;;6.90;98.00;;;;;;5013941;28;20026;-68
2023/01/11 03:23:18;;;;;;;3.78;1.20;;;6.90;98.00;;;;;;5007727;28;20667;-68
2023/01/11 03:26:10;;;;;;;1.90;1.00;;;6.80;98.00;;;;;;5012498;28;20060;-68
2023/01/11 03:28:45;;;;;;;2.50;1.10;;;7.00;98.00;;;;;;5007771;28;20038;-68
2023/01/11 03:31:27;;;;;;;2.70;1.20;;;7.10;98.00;;;;;;5014417;28;20021;-68
2023/01/11 03:34:07;;;;;;;1.80;0.90;;;7.20;98.00;;;;;;5013161;28;20030;-68
2023/01/11 03:36:52;;;;;;;2.45;1.00;;;7.30;98.00;;;;;;4997783;28;20024;-68
2023/01/11 03:39:53;;;;;;;1.73;1.00;;;7.30;98.00;;;;;;5013187;28;20034;-67
2023/01/11 03:42:22;;;;;;;1.55;0.90;;;7.30;98.00;;;;;;5014314;28;20022;-68
2023/01/11 03:44:54;;;;;;;4.20;1.33;;;7.30;98.00;;;;;;5013454;28;20026;-67
2023/01/11 03:47:23;;;;;;;2.53;1.00;;;7.30;98.00;;;;;;5013267;28;20030;-68
2023/01/11 03:49:57;;;;;;;1.83;0.90;;;7.30;98.00;;;;;;5015093;28;20080;-68
2023/01/11 03:52:29;;;;;;;2.38;0.90;;;7.30;98.00;;;;;;5012426;28;20018;-67
2023/01/11 03:54:57;;;;;;;2.30;0.90;;;7.40;98.00;;;;;;5016105;28;20054;-68
2023/01/11 03:57:28;;;;;;;2.40;1.00;;;7.40;98.00;;;;;;5013699;28;20173;-67
2023/01/11 03:59:54;;;;;;;1.33;0.90;;;7.50;98.00;;;;;;5013067;28;20033;-67
2023/01/11 04:02:26;;;;;;;2.00;1.00;;;7.60;98.00;;;;;;5013413;28;20133;-67
2023/01/11 04:04:51;;;;;;;1.73;0.90;;;7.60;98.00;;;;;;5015024;28;20089;-69
2023/01/11 04:07:17;;;;;;;1.60;0.90;;;7.60;98.00;;;;;;5013573;28;20033;-68
2023/01/11 04:09:44;;;;;;;2.28;0.90;;;7.50;98.00;;;;;;5012467;28;20103;-69
2023/01/11 04:12:12;;;;;;;2.08;0.80;;;7.60;98.00;;;;;;4992362;28;20080;-68
2023/01/11 04:14:37;;;;;;;1.88;1.00;;;7.70;98.00;;;;;;5008556;28;20026;-68
2023/01/11 04:17:04;;;;;;;3.97;0.95;;;7.70;98.00;;;;;;5011418;28;20427;-68
2023/01/11 04:19:29;;;;;;;1.50;0.80;;;7.80;98.00;;;;;;4993981;28;20323;-68
2023/01/11 04:21:55;;;;;;;2.40;0.93;;;7.80;98.00;;;;;;5010643;28;20026;-68
2023/01/11 04:24:20;;;;;;;1.98;0.88;;;7.80;98.00;;;;;;5017898;28;20034;-68
2023/01/11 04:26:46;;;;;;;3.75;0.90;;;7.70;98.00;;;;;;4994797;28;20446;-67
2023/01/11 04:29:11;;;;;;;1.42;0.70;;;7.70;98.00;;;;;;5011675;28;20021;-68
2023/01/11 04:31:37;;;;;;;1.20;0.80;;;7.60;98.00;;;;;;4993601;28;20093;-68
2023/01/11 04:34:03;;;;;;;2.70;1.02;;;7.70;98.00;;;;;;5013654;28;20374;-68
2023/01/11 04:36:30;;;;;;;3.83;0.95;;;7.70;98.00;;;;;;5013053;28;20034;-69
2023/01/11 04:38:56;;;;;;;2.40;1.00;;;7.70;98.00;;;;;;5012957;28;20307;-68
2023/01/11 04:44:06;;;;;;;3.35;1.65;;;7.70;98.00;;;;;;5014104;28;20041;-68
2023/01/11 04:46:31;;;;;;;4.72;2.22;;;7.80;98.00;;;;;;5018600;28;20034;-68
2023/01/11 04:48:57;;;;;;;9.88;5.13;;;7.80;98.00;;;;;;5001007;28;20113;-68
2023/01/11 04:51:22;;;;;;;5.43;2.88;;;7.80;98.00;;;;;;5013639;28;20030;-68
2023/01/11 04:53:49;;;;;;;3.78;1.73;;;7.70;98.00;;;;;;5012470;28;20022;-67
2023/01/11 04:56:15;;;;;;;4.07;2.05;;;7.70;98.00;;;;;;5011096;28;20327;-67
2023/01/11 04:58:41;;;;;;;5.40;3.03;;;7.70;98.00;;;;;;5010908;28;20030;-67
2023/01/11 05:01:18;;;;;;;20.20;13.93;;;7.70;98.00;;;;;;5009679;28;20026;-67
2023/01/11 05:03:46;;;;;;;2.53;1.15;;;7.70;98.00;;;;;;5011088;28;20319;-67
2023/01/11 05:06:13;;;;;;;6.07;3.53;;;7.80;98.00;;;;;;5010798;28;20033;-67
2023/01/11 05:08:38;;;;;;;2.72;1.23;;;7.70;98.00;;;;;;4993921;28;20033;-68
2023/01/11 05:11:07;;;;;;;4.28;2.15;;;7.70;98.00;;;;;;5009844;28;20172;-68
2023/01/11 05:13:42;;;;;;;2.35;1.13;;;7.60;98.00;;;;;;5011681;28;20052;-67
2023/01/11 05:16:12;;;;;;;5.47;3.28;;;7.60;98.00;;;;;;4995344;28;20113;-68
2023/01/11 05:18:47;;;;;;;5.40;1.80;;;7.50;98.00;;;;;;5012592;28;20048;-69
2023/01/11 05:21:14;;;;;;;5.65;3.33;;;7.40;98.00;;;;;;5012450;28;20033;-69
2023/01/11 05:23:42;;;;;;;1.50;0.90;;;7.30;98.00;;;;;;5014391;28;20059;-68
2023/01/11 05:26:13;;;;;;;1.75;0.90;;;7.30;98.00;;;;;;5011375;28;20097;-68
2023/01/11 05:28:39;;;;;;;4.55;1.23;;;7.30;97.90;;;;;;4983227;28;20033;-68
2023/01/11 05:31:04;;;;;;;5.60;2.20;;;7.20;98.00;;;;;;5011457;28;20034;-68
2023/01/11 05:33:31;;;;;;;2.03;0.98;;;7.10;97.80;;;;;;5014532;28;20088;-67
2023/01/11 05:36:01;;;;;;;2.45;1.00;;;6.90;96.60;;;;;;5014448;28;20033;-68
2023/01/11 05:38:28;;;;;;;3.47;1.70;;;6.80;96.30;;;;;;5018701;28;20037;-67
2023/01/11 05:41:01;;;;;;;2.20;1.10;;;6.90;95.50;;;;;;4999727;28;20025;-68
2023/01/11 05:43:28;;;;;;;2.47;1.40;;;7.10;96.80;;;;;;5017514;28;20326;-68
2023/01/11 05:45:55;;;;;;;2.05;1.10;;;7.30;98.00;;;;;;5017810;28;20038;-68
2023/01/11 05:48:21;;;;;;;1.80;0.85;;;7.50;98.00;;;;;;5017678;28;20108;-68
2023/01/11 05:50:51;;;;;;;1.60;0.93;;;7.50;98.00;;;;;;5014930;28;20378;-68
2023/01/11 05:53:17;;;;;;;2.67;1.20;;;7.50;98.00;;;;;;5014910;28;20099;-68
2023/01/11 05:55:57;;;;;;;2.05;0.90;;;7.50;98.00;;;;;;5015845;28;20064;-68
2023/01/11 05:58:25;;;;;;;2.30;1.00;;;7.90;98.00;;;;;;5016623;28;20342;-69
2023/01/11 06:00:53;;;;;;;2.38;1.23;;;8.00;98.00;;;;;;5016896;28;20026;-68
2023/01/11 06:03:19;;;;;;;2.03;0.95;;;8.10;98.00;;;;;;5017188;28;20101;-68
2023/01/11 06:05:45;;;;;;;2.67;0.90;;;8.30;98.00;;;;;;5016357;28;20018;-68
2023/01/11 06:08:11;;;;;;;1.15;0.75;;;8.40;98.00;;;;;;5011077;28;20029;-68
2023/01/11 06:10:37;;;;;;;0.80;0.60;;;8.50;98.00;;;;;;5010818;28;20544;-68
2023/01/11 06:15:47;;;;;;;0.60;0.60;;;8.60;98.00;;;;;;5009357;28;20060;-68
2023/01/11 06:18:13;;;;;;;0.85;0.70;;;8.70;98.00;;;;;;5002958;28;20396;-68
2023/01/11 06:20:41;;;;;;;0.75;0.60;;;8.80;98.00;;;;;;4995536;28;20408;-68
2023/01/11 06:23:06;;;;;;;1.58;0.80;;;8.90;98.00;;;;;;5007904;28;20034;-68
2023/01/11 06:25:36;;;;;;;1.15;0.70;;;8.90;98.00;;;;;;4997284;28;20347;-68
2023/01/11 06:28:03;;;;;;;0.60;0.60;;;9.00;98.00;;;;;;4963237;28;20101;-68
2023/01/11 06:30:28;;;;;;;1.42;0.60;;;9.00;98.00;;;;;;4997450;28;20097;-68
2023/01/11 06:32:54;;;;;;;1.40;0.70;;;9.00;98.00;;;;;;4995976;28;20042;-67
2023/01/11 06:35:20;;;;;;;0.93;0.70;;;8.90;98.00;;;;;;4997478;28;20033;-68
2023/01/11 06:37:46;;;;;;;0.88;0.60;;;8.90;98.00;;;;;;4994571;28;20474;-68
2023/01/11 06:40:11;;;;;;;0.77;0.70;;;8.80;98.00;;;;;;4997284;28;20038;-68
2023/01/11 06:42:37;;;;;;;0.80;0.60;;;8.90;98.00;;;;;;4995537;28;20035;-68
2023/01/11 06:45:04;;;;;;;1.67;0.80;;;8.80;98.00;;;;;;4993433;28;20034;-68
2023/01/11 06:47:29;;;;;;;1.38;0.65;;;8.70;98.00;;;;;;4970648;28;20029;-68
2023/01/11 06:49:57;;;;;;;0.50;0.50;;;8.70;98.00;;;;;;4998096;28;20026;-68
2023/01/11 06:52:23;;;;;;;0.93;0.70;;;8.60;98.00;;;;;;4993834;28;20118;-67
2023/01/11 06:54:48;;;;;;;1.15;0.70;;;8.60;98.00;;;;;;4997740;28;20034;-67
2023/01/11 06:57:14;;;;;;;1.20;0.73;;;8.70;98.00;;;;;;4996852;28;20031;-67
2023/01/11 06:59:40;;;;;;;0.60;0.60;;;8.60;98.00;;;;;;4997901;28;20076;-69
2023/01/11 07:02:08;;;;;;;1.98;0.70;;;8.60;98.00;;;;;;4996496;28;20176;-68
2023/01/11 07:04:33;;;;;;;0.65;0.60;;;8.60;98.00;;;;;;4997691;28;20033;-69
2023/01/11 07:06:59;;;;;;;0.73;0.68;;;8.60;98.00;;;;;;4994593;28;20034;-69
2023/01/11 07:09:25;;;;;;;0.95;0.70;;;8.60;98.00;;;;;;4997328;28;20038;-69
2023/01/11 07:11:50;;;;;;;0.68;0.68;;;8.70;98.00;;;;;;5016404;28;20022;-69
2023/01/11 07:14:18;;;;;;;0.93;0.60;;;8.80;98.00;;;;;;5016984;28;20323;-68
2023/01/11 07:16:45;;;;;;;0.60;0.60;;;8.80;98.00;;;;;;5016991;28;20141;-68
2023/01/11 07:19:11;;;;;;;0.88;0.63;;;8.70;98.00;;;;;;5013384;28;20030;-68
2023/01/11 07:21:36;;;;;;;1.15;0.70;;;8.70;98.00;;;;;;5014416;28;20025;-68
2023/01/11 07:24:03;;;;;;;1.88;0.90;;;8.70;98.00;;;;;;5016990;28;20032;-68
2023/01/11 07:26:28;;;;;;;1.83;0.80;;;8.60;98.00;;;;;;5016790;28;20026;-68
2023/01/11 07:28:54;;;;;;;2.97;0.80;;;8.50;98.00;;;;;;5017052;28;20426;-68
2023/01/11 07:31:19;;;;;;;1.23;0.70;;;8.40;98.00;;;;;;5015722;28;20073;-68
2023/01/11 07:33:45;;;;;;;1.73;0.80;;;8.40;98.00;;;;;;5016847;28;20304;-68
2023/01/11 07:36:11;;;;;;;1.40;0.80;;;8.40;98.00;;;;;;5015424;28;20034;-68
2023/01/11 07:38:36;;;;;;;1.98;0.80;;;8.30;98.00;;;;;;5014753;28;20026;-68
2023/01/11 07:43:10;;;;;;;2.70;0.98;;;8.30;98.00;;;;;;5014833;28;20030;-68
2023/01/11 07:43:47;;;;;;;1.58;0.90;;;8.30;98.00;;;;;;5015476;28;20022;-67
2023/01/11 07:46:13;;;;;;;2.78;1.10;;;8.40;98.00;;;;;;5015821;28;20088;-68
2023/01/11 07:48:39;;;;;;;1.40;0.80;;;8.30;98.00;;;;;;5014566;28;20084;-68
2023/01/11 07:51:05;;;;;;;2.08;1.00;;;8.30;98.00;;;;;;4999180;28;20029;-68
2023/01/11 07:53:30;;;;;;;1.95;0.90;;;8.30;98.00;;;;;;5016649;28;20084;-69
2023/01/11 07:55:56;;;;;;;2.35;0.90;;;8.40;98.00;;;;;;5015272;28;20161;-67
2023/01/11 07:58:22;;;;;;;1.63;1.00;;;8.50;98.00;;;;;;5016003;28;20033;-68
2023/01/11 08:00:48;;;;;;;2.22;1.10;;;8.50;98.00;;;;;;5015771;28;20441;-68
2023/01/11 08:03:13;;;;;;;2.78;1.00;;;8.60;98.00;;;;;;5013232;28;20022;-67
2023/01/11 08:05:39;;;;;;;1.98;1.00;;;8.60;98.00;;;;;;5016442;28;20116;-68
2023/01/11 08:08:05;;;;;;;2.67;1.10;;;8.60;98.00;;;;;;5015079;28;20419;-68
2023/01/11 08:10:33;;;;;;;2.35;1.13;;;8.60;98.00;;;;;;5014964;28;20350;-68
2023/01/11 08:15:43;;;;;;;2.38;1.10;;;8.50;98.00;;;;;;5016140;28;20036;-68
2023/01/11 08:18:10;;;;;;;3.88;1.67;;;8.50;98.00;;;;;;5015303;28;20022;-68
2023/01/11 08:20:37;;;;;;;3.58;1.30;;;8.50;98.00;;;;;;4998224;28;20411;-68
2023/01/11 08:23:05;;;;;;;3.45;1.10;;;8.50;98.00;;;;;;5014945;28;20050;-68
2023/01/11 08:25:31;;;;;;;3.35;1.30;;;8.50;98.00;;;;;;5015180;28;20026;-69
2023/01/11 08:27:59;;;;;;;4.50;2.17;;;8.60;98.00;;;;;;5013319;28;20109;-68
2023/01/11 08:30:25;;;;;;;2.30;1.00;;;8.60;98.00;;;;;;5016093;28;20210;-67
2023/01/11 08:32:50;;;;;;;2.08;1.00;;;8.70;98.00;;;;;;5015562;28;20429;-68
2023/01/11 08:35:16;;;;;;;2.70;1.20;;;8.70;98.00;;;;;;5015924;28;20395;-68
2023/01/11 08:37:41;;;;;;;3.17;1.63;;;8.70;98.00;;;;;;5013238;28;20443;-68
2023/01/11 08:40:08;;;;;;;5.60;1.60;;;8.60;98.00;;;;;;5015939;28;20101;-68
2023/01/11 08:42:34;;;;;;;4.10;1.98;;;8.70;98.00;;;;;;4995131;28;20032;-68
2023/01/11 08:44:59;;;;;;;4.88;2.85;;;8.70;98.00;;;;;;5015938;28;20108;-69
2023/01/11 08:47:25;;;;;;;3.08;1.23;;;8.60;98.00;;;;;;5012487;28;20038;-68
2023/01/11 08:49:51;;;;;;;3.15;1.10;;;8.60;98.00;;;;;;5015996;28;20030;-68
2023/01/11 08:52:16;;;;;;;2.08;1.00;;;8.70;98.00;;;;;;5013914;28;20040;-68
2023/01/11 08:54:42;;;;;;;3.05;1.20;;;8.70;98.00;;;;;;5015743;28;20022;-68
2023/01/11 08:57:09;;;;;;;3.00;1.50;;;8.80;98.00;;;;;;5014867;28;20046;-68
2023/01/11 08:59:34;;;;;;;2.15;0.98;;;8.80;98.00;;;;;;5015720;28;20415;-68
2023/01/11 09:02:01;;;;;;;1.90;1.02;;;8.90;98.00;;;;;;5013955;28;20033;-67
2023/01/11 09:04:27;;;;;;;3.70;1.27;;;8.90;98.00;;;;;;5014447;28;20141;-68
2023/01/11 09:06:52;;;;;;;3.30;1.45;;;9.00;98.00;;;;;;5013128;28;20168;-68
2023/01/11 09:09:18;;;;;;;1.70;0.98;;;9.00;98.00;;;;;;5016832;28;20399;-68
2023/01/11 09:11:53;;;;;;;3.40;1.55;;;9.00;98.00;;;;;;5018573;28;20037;-67
2023/01/11 09:14:18;;;;;;;2.13;0.90;;;9.10;98.00;;;;;;5019418;28;20322;-68
2023/01/11 09:16:44;;;;;;;2.00;1.00;;;9.20;98.00;;;;;;5018374;28;20041;-67
2023/01/11 09:19:09;;;;;;;2.15;1.00;;;9.20;98.00;;;;;;5018315;28;20037;-67
2023/01/11 09:21:35;;;;;;;2.47;1.00;;;9.30;98.00;;;;;;5015999;28;20026;-67
2023/01/11 09:24:02;;;;;;;1.88;0.98;;;9.30;98.00;;;;;;5019061;28;20072;-67
2023/01/11 09:26:28;;;;;;;6.07;2.50;;;9.30;98.00;;;;;;5018434;28;20026;-68
2023/01/11 09:28:54;;;;;;;1.90;1.00;;;9.30;98.00;;;;;;5019298;28;20026;-67
2023/01/11 09:31:19;;;;;;;3.10;1.40;;;9.40;98.00;;;;;;5018235;28;20030;-67
2023/01/11 09:33:45;;;;;;;2.67;1.23;;;9.40;98.00;;;;;;5017764;28;20026;-67
2023/01/11 09:36:12;;;;;;;2.67;1.00;;;9.40;98.00;;;;;;5015201;28;20109;-68
2023/01/11 09:38:38;;;;;;;1.13;0.80;;;9.50;98.00;;;;;;4992978;28;20315;-67
2023/01/11 09:41:24;;;;;;;1.80;0.90;;;9.50;98.00;;;;;;4999323;28;20078;-67
2023/01/11 09:44:15;;;;;;;2.05;0.90;;;9.50;98.00;;;;;;5016559;28;20034;-67
2023/01/11 09:46:51;;;;;;;1.50;0.80;;;9.60;98.00;;;;;;5018139;28;20030;-67
2023/01/11 09:49:40;;;;;;;1.92;0.93;;;9.50;98.00;;;;;;5017869;28;20033;-67
2023/01/11 09:52:23;;;;;;;2.38;1.00;;;9.60;98.00;;;;;;5015558;28;20466;-67
2023/01/11 09:54:49;;;;;;;2.65;1.05;;;9.50;98.00;;;;;;5018691;28;20034;-68
2023/01/11 09:57:21;;;;;;;2.08;1.00;;;9.50;98.00;;;;;;5017645;28;20366;-68
2023/01/11 09:59:55;;;;;;;2.60;1.30;;;9.50;98.00;;;;;;5018711;28;20018;-68
2023/01/11 10:02:36;;;;;;;2.72;1.10;;;9.50;98.00;;;;;;5017962;28;20104;-68
2023/01/11 10:05:24;;;;;;;2.30;0.90;;;9.50;98.00;;;;;;5018432;28;20036;-68
2023/01/11 10:08:38;;;;;;;2.05;0.70;;;9.50;98.00;;;;;;5015261;28;20115;-68
2023/01/11 10:11:31;;;;;;;0.75;0.70;;;9.60;98.00;;;;;;4960973;28;20051;-68
2023/01/11 10:14:25;;;;;;;1.30;0.88;;;9.70;98.00;;;;;;5017164;28;20109;-68
2023/01/11 10:17:20;;;;;;;1.45;0.80;;;9.70;98.00;;;;;;5000346;28;20033;-68
2023/01/11 10:19:52;;;;;;;6.47;2.72;;;9.80;98.00;;;;;;5017940;28;20069;-68
2023/01/11 10:22:39;;;;;;;1.80;0.85;;;9.80;98.00;;;;;;5015230;28;20057;-68
2023/01/11 10:25:13;;;;;;;1.65;0.80;;;9.70;98.00;;;;;;5018138;28;20041;-67
2023/01/11 10:27:44;;;;;;;3.17;1.08;;;9.70;98.00;;;;;;5000045;28;20878;-68
2023/01/11 10:33:42;;;;;;;4.90;2.33;;;9.70;98.00;;;;;;5017310;28;20060;-68
2023/01/11 10:41:37;;;;;;;1.77;0.85;;;9.90;98.00;;;;;;5017763;28;20419;-68
2023/01/11 10:44:09;;;;;;;3.03;1.35;;;9.90;98.00;;;;;;5016895;28;20053;-68
2023/01/11 10:46:47;;;;;;;2.35;1.30;;;9.90;98.00;;;;;;5000388;28;20422;-67
2023/01/11 10:49:33;;;;;;;2.00;0.85;;;10.00;98.00;;;;;;5000015;28;20034;-68
2023/01/11 10:52:11;;;;;;;1.95;0.70;;;10.10;98.00;;;;;;5013655;28;20022;-68
2023/01/11 10:54:37;;;;;;;1.60;1.08;;;10.20;98.00;;;;;;5017735;28;20037;-67
2023/01/11 10:57:21;;;;;;;1.55;0.70;;;10.20;98.00;;;;;;4998989;28;20073;-68
2023/01/11 11:00:12;;;;;;;1.30;0.77;;;10.20;98.00;;;;;;5020052;28;20094;-68
2023/01/11 11:03:07;;;;;;;0.65;0.60;;;10.30;98.00;;;;;;5025764;28;20096;-68
2023/01/11 11:05:55;;;;;;;1.25;0.70;;;10.40;98.00;;;;;;4999525;28;20380;-68
2023/01/11 11:08:55;;;;;;;1.17;0.70;;;10.50;97.90;;;;;;5013710;28;20083;-68
2023/01/11 11:11:31;;;;;;;1.00;0.65;;;10.50;97.50;;;;;;5015280;28;20041;-68
2023/01/11 11:14:11;;;;;;;1.15;0.70;;;10.60;97.40;;;;;;5017101;28;20129;-68
2023/01/11 11:16:48;;;;;;;1.15;0.65;;;10.70;97.20;;;;;;5016890;28;20032;-67
2023/01/11 11:19:19;;;;;;;0.75;0.60;;;10.60;97.30;;;;;;5017166;28;20026;-67
2023/01/11 11:21:47;;;;;;;0.95;0.70;;;10.60;97.70;;;;;;5015984;28;20022;-68
2023/01/11 11:24:20;;;;;;;0.70;0.57;;;10.50;98.00;;;;;;5016939;28;20343;-67
2023/01/11 11:26:52;;;;;;;3.20;1.42;;;10.50;98.00;;;;;;5015194;28;20032;-67
2023/01/11 11:29:27;;;;;;;0.70;0.50;;;10.50;98.00;;;;;;5015063;28;20044;-68
2023/01/11 11:31:54;;;;;;;0.50;0.50;;;10.60;98.00;;;;;;5014013;28;20034;-68
2023/01/11 11:34:21;;;;;;;1.00;0.60;;;10.70;98.00;;;;;;5014648;28;20472;-68
2023/01/11 11:36:49;;;;;;;0.55;0.50;;;10.70;97.70;;;;;;5015666;28;20022;-68
2023/01/11 11:39:29;;;;;;;0.70;0.60;;;10.80;97.50;;;;;;5015776;28;20412;-68
2023/01/11 11:42:06;;;;;;;1.10;0.70;;;10.90;97.30;;;;;;5015819;28;20049;-67
2023/01/11 11:44:32;;;;;;;1.75;0.93;;;10.90;97.10;;;;;;5015806;28;20306;-68
2023/01/11 11:47:03;;;;;;;3.45;1.95;;;10.80;97.70;;;;;;4995397;28;20116;-68
2023/01/11 11:49:31;;;;;;;8.93;4.45;;;10.80;97.70;;;;;;5016092;28;20041;-68
2023/01/11 11:51:59;;;;;;;4.68;2.60;;;10.60;98.00;;;;;;5014475;28;20311;-67
2023/01/11 11:54:35;;;;;;;3.33;1.80;;;10.60;98.00;;;;;;5013929;28;20038;-67
2023/01/11 11:57:21;;;;;;;1.33;0.90;;;10.60;98.00;;;;;;5016592;28;20112;-67
2023/01/11 11:59:51;;;;;;;0.60;0.50;;;10.60;98.00;;;;;;5014596;28;20026;-67
2023/01/11 12:02:28;;;;;;;1.00;0.73;;;10.50;98.00;;;;;;5015672;28;20025;-68
2023/01/11 12:04:56;;;;;;;0.88;0.60;;;10.40;98.00;;;;;;5015816;28;20061;-67
2023/01/11 12:07:43;;;;;;;0.70;0.60;;;10.40;98.00;;;;;;5012960;28;20030;-68
2023/01/11 12:10:14;;;;;;;1.10;1.00;;;10.30;98.00;;;;;;5014131;28;20078;-68
2023/01/11 12:13:00;;;;;;;0.55;0.55;;;10.30;98.00;;;;;;5018478;28;20427;-68
2023/01/11 12:15:27;;;;;;;2.00;1.08;;;10.20;98.00;;;;;;5035867;28;20039;-68
2023/01/11 12:18:12;;;;;;;1.60;0.95;;;10.20;98.00;;;;;;5023331;28;20104;-68
2023/01/11 12:20:41;;;;;;;1.15;0.85;;;10.10;98.00;;;;;;5015208;28;20605;-68
2023/01/11 12:23:17;;;;;;;0.50;0.50;;;10.20;98.00;;;;;;5014080;28;20041;-68
2023/01/11 12:25:49;;;;;;;0.95;0.65;;;10.30;98.00;;;;;;5015983;28;20056;-68
2023/01/11 12:28:57;;;;;;;0.80;0.60;;;10.40;98.00;;;;;;5016127;28;20029;-68
2023/01/11 12:31:59;;;;;;;1.13;0.70;;;10.40;98.00;;;;;;4961811;28;20034;-67
2023/01/11 12:34:41;;;;;;;0.55;0.52;;;10.50;98.00;;;;;;4996160;28;20419;-66
2023/01/11 12:37:17;;;;;;;0.88;0.60;;;10.40;98.00;;;;;;5006109;28;20030;-67
2023/01/11 12:39:46;;;;;;;3.60;1.70;;;10.30;98.00;;;;;;5015998;28;20441;-67
2023/01/11 12:42:35;;;;;;;2.97;1.33;;;10.30;98.00;;;;;;5015720;28;20065;-67
2023/01/11 12:45:22;;;;;;;4.45;2.08;;;10.30;98.00;;;;;;5001355;28;20442;-67
2023/01/11 12:47:56;;;;;;;4.80;2.10;;;10.10;98.00;;;;;;5016729;28;20029;-67
2023/01/11 12:50:44;;;;;;;1.90;1.00;;;10.10;98.00;;;;;;5018611;28;20104;-68
2023/01/11 12:53:24;;;;;;;3.50;1.50;;;10.00;98.00;;;;;;4995357;28;20061;-68
2023/01/11 12:56:17;;;;;;;3.05;1.50;;;9.90;98.00;;;;;;5016612;28;20117;-68
2023/01/11 12:58:54;;;;;;;3.53;1.27;;;9.70;98.00;;;;;;5019175;28;20028;-68
2023/01/11 13:01:32;;;;;;;1.08;0.75;;;9.60;98.00;;;;;;5001675;28;20026;-67
2023/01/11 13:04:31;;;;;;;2.75;1.35;;;9.30;98.00;;;;;;5018424;28;20018;-68
2023/01/11 13:07:13;;;;;;;3.65;2.05;;;9.20;98.00;;;;;;5017419;28;20032;-68
2023/01/11 13:10:12;;;;;;;3.45;1.30;;;9.10;97.20;;;;;;5016939;28;20045;-68
2023/01/11 13:12:45;;;;;;;4.65;1.45;;;9.10;98.00;;;;;;5019407;28;20084;-68
2023/01/11 13:15:11;;;;;;;5.33;2.00;;;9.00;96.00;;;;;;5016909;28;20030;-68
2023/01/11 13:18:04;;;;;;;3.35;1.52;;;8.90;95.80;;;;;;5019221;28;20717;-68
2023/01/11 13:20:54;;;;;;;3.10;1.50;;;8.80;96.50;;;;;;5017194;28;20026;-68
2023/01/11 13:23:34;;;;;;;4.13;1.95;;;8.70;94.70;;;;;;5018782;28;20415;-68
2023/01/11 13:26:23;;;;;;;3.65;1.70;;;8.60;93.50;;;;;;5017740;28;20037;-68
2023/01/11 13:28:56;;;;;;;4.15;1.73;;;8.60;94.30;;;;;;5019019;28;20101;-68
2023/01/11 13:31:23;;;;;;;2.85;1.23;;;8.50;93.10;;;;;;5017709;28;20037;-68
2023/01/11 13:33:56;;;;;;;4.03;1.95;;;8.50;93.40;;;;;;5018899;28;20030;-68
2023/01/11 13:36:27;;;;;;;4.32;2.30;;;8.50;92.30;;;;;;5016189;28;20419;-68
2023/01/11 13:39:00;;;;;;;4.25;1.50;;;8.50;92.20;;;;;;5019021;28;20017;-68
2023/01/11 13:41:54;;;;;;;2.90;1.60;;;8.50;95.40;;;;;;5017305;28;20053;-68
2023/01/11 13:44:24;;;;;;;2.72;1.40;;;8.50;96.10;;;;;;5017711;28;20445;-68
2023/01/11 13:47:10;;;;;;;3.70;1.60;;;8.50;94.70;;;;;;5018589;28;20470;-67
2023/01/11 13:49:59;;;;;;;2.38;1.10;;;8.50;96.30;;;;;;5000070;28;20026;-68
2023/01/11 13:52:40;;;;;;;3.78;1.73;;;8.50;97.20;;;;;;5017481;28;20152;-68
2023/01/11 13:55:19;;;;;;;4.07;1.90;;;8.50;97.80;;;;;;5015781;28;20109;-68
2023/01/11 13:58:14;;;;;;;4.55;1.67;;;8.50;97.30;;;;;;5018556;28;20022;-68